Time;durP1;ratioP1;P1;durP2;ratioP2;P2;SDS_P1;SDS_P2;PMS_P1;PMS_P2;Temp;Humidity;BMP_temperature;BMP_pressure;BME280_temperature;BME280_humidity;BME280_pressure;Samples;Min_cycle;Max_cycle;Signal;HPM_P1;HPM_P2
2022/07/07 00:02:13;;;;;;;4.40;2.15;;;;;;;16.93;87.01;99345.78;1813840;79;21012;-76
2022/07/07 00:04:39;;;;;;;2.60;2.20;;;;;;;16.87;87.26;99343.02;1792630;79;21041;-75
2022/07/07 00:07:06;;;;;;;4.40;1.92;;;;;;;16.84;87.45;99352.95;1787024;80;21132;-76
2022/07/07 00:09:34;;;;;;;2.55;1.87;;;;;;;16.77;87.45;99343.67;1787079;80;21311;-76
2022/07/07 00:12:00;;;;;;;2.20;1.70;;;;;;;16.70;87.62;99345.37;1786879;79;21081;-76
2022/07/07 00:14:28;;;;;;;4.75;1.77;;;;;;;16.68;87.53;99344.63;1787064;80;21065;-76
2022/07/07 00:16:55;;;;;;;1.50;1.37;;;;;;;16.62;87.37;99341.50;1787033;80;21030;-76
2022/07/07 00:19:21;;;;;;;2.33;1.22;;;;;;;16.58;87.18;99338.19;1786892;80;21053;-76
2022/07/07 00:21:47;;;;;;;2.02;1.10;;;;;;;16.53;87.24;99338.95;1787347;80;21500;-76
2022/07/07 00:24:14;;;;;;;1.00;0.90;;;;;;;16.47;86.60;99337.98;1787032;80;21066;-76
2022/07/07 00:26:41;;;;;;;1.40;1.00;;;;;;;16.38;86.37;99338.58;1787331;80;22159;-76
2022/07/07 00:29:08;;;;;;;2.92;1.00;;;;;;;16.30;86.29;99337.22;1786828;80;21636;-75
2022/07/07 00:31:34;;;;;;;2.22;1.00;;;;;;;16.26;86.20;99345.00;1787048;80;21077;-76
2022/07/07 00:34:01;;;;;;;1.05;0.90;;;;;;;16.21;86.20;99356.38;1786953;80;21121;-75
2022/07/07 00:36:28;;;;;;;1.22;0.90;;;;;;;16.16;86.21;99359.30;1787105;79;21129;-77
2022/07/07 00:38:55;;;;;;;2.20;0.82;;;;;;;16.14;86.19;99350.58;1787141;79;21048;-76
2022/07/07 00:41:21;;;;;;;2.25;1.00;;;;;;;16.11;85.82;99346.78;1787061;79;21101;-76
2022/07/07 00:43:48;;;;;;;2.58;0.70;;;;;;;16.07;85.78;99349.70;1786972;80;21092;-76
2022/07/07 00:46:14;;;;;;;1.30;1.15;;;;;;;16.03;85.93;99348.20;1787000;80;21772;-76
2022/07/07 00:48:41;;;;;;;0.95;0.70;;;;;;;16.03;86.04;99340.23;1786747;79;21557;-76
2022/07/07 00:51:10;;;;;;;2.58;0.82;;;;;;;16.02;86.08;99339.84;1764838;80;21064;-76
2022/07/07 00:53:38;;;;;;;2.80;0.80;;;;;;;15.98;85.82;99328.08;1797241;79;21053;-76
2022/07/07 00:56:05;;;;;;;2.40;0.80;;;;;;;15.96;85.86;99333.95;1802642;79;21045;-76
2022/07/07 00:58:33;;;;;;;3.70;0.90;;;;;;;15.95;85.83;99324.76;1802635;79;21096;-76
2022/07/07 01:01:01;;;;;;;1.32;1.25;;;;;;;15.93;85.42;99326.17;1802427;79;21290;-76
2022/07/07 01:03:29;;;;;;;0.93;0.93;;;;;;;15.92;85.31;99320.95;1802474;79;21041;-76
2022/07/07 01:05:55;;;;;;;2.35;1.07;;;;;;;15.91;85.40;99320.59;1802931;79;21027;-76
2022/07/07 01:08:22;;;;;;;2.00;1.12;;;;;;;15.91;85.35;99320.59;1802535;79;21096;-76
2022/07/07 01:10:48;;;;;;;2.50;1.20;;;;;;;15.89;85.17;99327.31;1803081;79;21101;-76
2022/07/07 01:13:15;;;;;;;2.00;1.10;;;;;;;15.87;85.29;99325.23;1802364;79;21104;-76
2022/07/07 01:15:41;;;;;;;2.25;1.57;;;;;;;15.89;85.14;99328.64;1802635;79;21040;-76
2022/07/07 01:18:08;;;;;;;1.50;1.40;;;;;;;15.88;84.80;99332.71;1802826;79;21477;-75
2022/07/07 01:20:34;;;;;;;2.40;1.15;;;;;;;15.81;84.50;99333.55;1802658;79;21053;-76
2022/07/07 01:23:02;;;;;;;2.87;1.25;;;;;;;15.75;84.61;99342.73;1802815;79;21108;-76
2022/07/07 01:25:28;;;;;;;1.37;1.05;;;;;;;15.72;84.41;99349.98;1802474;79;20985;-77
2022/07/07 01:27:55;;;;;;;1.20;1.10;;;;;;;15.74;84.53;99356.05;1802350;79;20974;-77
2022/07/07 01:30:21;;;;;;;2.52;1.00;;;;;;;15.73;84.58;99371.57;1803084;79;21033;-77
2022/07/07 01:32:48;;;;;;;2.52;1.17;;;;;;;15.68;84.66;99367.85;1802549;79;21492;-76
2022/07/07 01:35:15;;;;;;;0.72;0.72;;;;;;;15.69;84.89;99375.36;1803038;79;21091;-76
2022/07/07 01:37:41;;;;;;;1.82;0.90;;;;;;;15.69;84.45;99372.70;1804546;78;20972;-76
2022/07/07 01:40:08;;;;;;;2.52;0.90;;;;;;;15.66;84.52;99364.92;1834793;78;21043;-76
2022/07/07 01:42:35;;;;;;;0.70;0.70;;;;;;;15.61;84.60;99371.33;1835333;78;20984;-76
2022/07/07 01:45:03;;;;;;;2.55;0.70;;;;;;;15.54;84.43;99369.98;1835456;78;20953;-77
2022/07/07 01:47:31;;;;;;;1.80;1.22;;;;;;;15.48;84.23;99378.76;1835301;78;22205;-76
2022/07/07 01:49:57;;;;;;;9.33;0.82;;;;;;;15.43;84.15;99371.06;1835336;78;21551;-76
2022/07/07 01:52:24;;;;;;;0.80;0.70;;;;;;;15.35;83.95;99374.64;1835604;77;21502;-77
2022/07/07 01:54:50;;;;;;;1.10;1.00;;;;;;;15.26;84.06;99370.69;1839380;78;21051;-75
2022/07/07 01:57:17;;;;;;;0.98;0.70;;;;;;;15.20;84.34;99382.50;1839265;78;21043;-76
2022/07/07 01:59:44;;;;;;;1.77;1.05;;;;;;;15.18;84.54;99383.06;1835902;78;21113;-75
2022/07/07 02:02:12;;;;;;;4.80;0.95;;;;;;;15.15;84.67;99383.23;1779253;79;20979;-77
2022/07/07 02:04:40;;;;;;;1.72;0.88;;;;;;;15.13;85.00;99381.14;1776624;80;21000;-76
2022/07/07 02:07:07;;;;;;;1.45;0.70;;;;;;;15.15;84.91;99391.18;1776804;80;20995;-75
2022/07/07 02:09:35;;;;;;;1.37;0.90;;;;;;;15.15;85.24;99388.53;1776740;80;20982;-76
2022/07/07 02:12:03;;;;;;;1.40;0.80;;;;;;;15.16;85.31;99383.63;1776794;80;21483;-75
2022/07/07 02:14:30;;;;;;;3.22;0.70;;;;;;;15.14;85.18;99381.98;1776616;80;21050;-75
2022/07/07 02:16:56;;;;;;;1.67;0.80;;;;;;;15.15;85.33;99389.86;1776922;80;21534;-76
2022/07/07 02:19:22;;;;;;;2.65;0.80;;;;;;;15.13;85.39;99377.62;1776495;80;22186;-76
2022/07/07 02:21:49;;;;;;;4.20;0.90;;;;;;;15.12;85.32;99377.25;1776969;80;21054;-76
2022/07/07 02:24:15;;;;;;;1.15;0.98;;;;;;;15.07;85.25;99376.17;1776752;80;21130;-76
2022/07/07 02:26:42;;;;;;;1.40;0.90;;;;;;;15.03;85.45;99385.25;1776681;80;21118;-76
2022/07/07 02:29:09;;;;;;;2.22;0.80;;;;;;;15.01;85.73;99392.40;1776655;80;21122;-77
2022/07/07 02:31:37;;;;;;;4.35;1.00;;;;;;;14.97;85.90;99396.17;1776642;80;21054;-77
2022/07/07 02:34:04;;;;;;;3.72;1.60;;;;;;;14.95;85.98;99397.58;1776784;80;21117;-76
2022/07/07 02:36:32;;;;;;;2.17;0.95;;;;;;;14.94;86.12;99396.33;1776820;80;21114;-77
2022/07/07 02:38:59;;;;;;;2.08;0.80;;;;;;;14.94;86.30;99402.95;1776693;80;21109;-76
2022/07/07 02:41:25;;;;;;;0.93;0.82;;;;;;;14.96;86.43;99401.07;1776807;80;21078;-76
2022/07/07 02:43:52;;;;;;;2.87;1.10;;;;;;;14.99;86.36;99402.23;1776605;80;21573;-76
2022/07/07 02:46:18;;;;;;;1.15;0.80;;;;;;;15.01;86.25;99418.89;1776613;80;21613;-76
2022/07/07 02:48:45;;;;;;;1.17;0.88;;;;;;;15.00;86.08;99411.91;1776533;80;21123;-77
2022/07/07 02:51:12;;;;;;;6.62;0.95;;;;;;;15.01;86.25;99411.83;1776574;80;21082;-76
2022/07/07 02:53:39;;;;;;;3.10;0.80;;;;;;;15.04;86.43;99419.58;1781752;80;21017;-76
2022/07/07 02:56:05;;;;;;;0.78;0.70;;;;;;;15.08;86.33;99415.00;1790197;79;21044;-76
2022/07/07 02:58:32;;;;;;;1.82;0.75;;;;;;;15.07;85.92;99417.25;1790160;80;21041;-76
2022/07/07 03:00:58;;;;;;;1.05;0.95;;;;;;;15.01;86.02;99424.20;1790106;80;21036;-76
2022/07/07 03:03:25;;;;;;;2.22;0.80;;;;;;;14.96;86.23;99419.17;1790171;80;21048;-77
2022/07/07 03:05:52;;;;;;;1.98;1.07;;;;;;;14.96;86.29;99426.23;1790207;80;21013;-76
2022/07/07 03:08:18;;;;;;;3.83;0.80;;;;;;;14.97;86.32;99425.31;1790374;80;21094;-77
2022/07/07 03:10:46;;;;;;;2.58;0.82;;;;;;;14.95;86.43;99409.98;1790387;79;21044;-76
2022/07/07 03:13:13;;;;;;;3.10;0.90;;;;;;;14.97;86.42;99413.39;1790366;80;21029;-77
2022/07/07 03:15:40;;;;;;;1.85;0.80;;;;;;;15.00;86.44;99415.88;1790490;79;21048;-77
2022/07/07 03:18:07;;;;;;;4.10;0.75;;;;;;;15.07;86.18;99415.92;1790315;80;20993;-76
2022/07/07 03:20:34;;;;;;;2.58;0.88;;;;;;;15.09;86.04;99419.33;1790635;80;20989;-76
2022/07/07 03:23:00;;;;;;;1.95;0.70;;;;;;;15.08;86.13;99421.62;1790258;79;22145;-76
2022/07/07 03:25:28;;;;;;;0.80;0.80;;;;;;;15.06;86.14;99419.50;1790416;80;21203;-77
2022/07/07 03:27:55;;;;;;;3.22;0.85;;;;;;;15.09;86.17;99421.98;1790362;80;20977;-76
2022/07/07 03:30:22;;;;;;;1.22;0.70;;;;;;;15.12;86.15;99424.47;1790343;80;21088;-76
2022/07/07 03:32:48;;;;;;;2.30;0.82;;;;;;;15.17;85.95;99423.75;1790272;80;22039;-77
2022/07/07 03:35:15;;;;;;;1.10;1.00;;;;;;;15.18;85.71;99421.50;1802875;78;20996;-76
2022/07/07 03:37:42;;;;;;;2.65;0.90;;;;;;;15.22;85.65;99419.05;1800759;79;21107;-77
2022/07/07 03:40:10;;;;;;;1.00;0.80;;;;;;;15.25;85.48;99422.02;1800983;79;21039;-76
2022/07/07 03:42:37;;;;;;;1.27;0.90;;;;;;;15.29;85.39;99420.05;1731981;82;21000;-76
2022/07/07 03:45:05;;;;;;;4.42;1.20;;;;;;;15.30;85.22;99434.98;1762765;80;21083;-76
2022/07/07 03:47:32;;;;;;;1.90;1.37;;;;;;;15.29;85.19;99435.95;1742137;81;21039;-76
2022/07/07 03:49:59;;;;;;;1.45;1.35;;;;;;;15.31;85.04;99441.53;1741576;82;21122;-76
2022/07/07 03:52:25;;;;;;;2.15;1.10;;;;;;;15.29;84.75;99438.59;1741979;82;21031;-77
2022/07/07 03:54:52;;;;;;;6.20;1.10;;;;;;;15.24;84.82;99447.64;1744711;81;21118;-76
2022/07/07 03:57:19;;;;;;;0.90;0.90;;;;;;;15.26;84.92;99446.71;1745848;82;20991;-76
2022/07/07 03:59:45;;;;;;;3.42;0.90;;;;;;;15.29;85.08;99446.55;1745912;82;21090;-75
2022/07/07 04:02:12;;;;;;;2.95;0.98;;;;;;;15.30;85.03;99441.16;1745671;81;21756;-76
2022/07/07 04:04:38;;;;;;;1.17;0.72;;;;;;;15.30;84.95;99441.61;1745867;82;21534;-75
2022/07/07 04:07:04;;;;;;;3.33;0.72;;;;;;;15.32;84.86;99443.73;1747745;80;21116;-76
2022/07/07 04:09:31;;;;;;;3.52;1.15;;;;;;;15.31;84.70;99448.64;1745643;82;21061;-77
2022/07/07 04:11:57;;;;;;;3.08;0.93;;;;;;;15.32;84.65;99458.31;1745925;82;21118;-76
2022/07/07 04:14:24;;;;;;;5.28;1.02;;;;;;;15.31;84.53;99457.44;1745883;82;21107;-76
2022/07/07 04:16:50;;;;;;;2.65;0.72;;;;;;;15.30;84.82;99461.50;1745798;81;21059;-76
2022/07/07 04:19:17;;;;;;;3.17;0.85;;;;;;;15.31;85.09;99457.91;1745824;82;21616;-76
2022/07/07 04:21:43;;;;;;;1.95;0.80;;;;;;;15.34;84.97;99457.75;1745565;81;21067;-76
2022/07/07 04:24:10;;;;;;;1.72;0.80;;;;;;;15.35;84.92;99455.02;1745756;81;21098;-76
2022/07/07 04:26:37;;;;;;;2.80;0.80;;;;;;;15.35;84.93;99462.13;1745654;81;21130;-76
2022/07/07 04:29:04;;;;;;;1.98;0.70;;;;;;;15.32;84.92;99464.94;1745544;82;21095;-76
2022/07/07 04:31:30;;;;;;;0.50;0.50;;;;;;;15.30;84.74;99456.19;1745683;82;21000;-76
2022/07/07 04:33:57;;;;;;;2.60;0.80;;;;;;;15.33;84.89;99467.95;1745700;81;21331;-76
2022/07/07 04:36:23;;;;;;;2.75;1.20;;;;;;;15.31;84.93;99455.27;1746133;81;21044;-76
2022/07/07 04:38:51;;;;;;;8.25;0.82;;;;;;;15.30;85.19;99461.50;1745593;82;21095;-76
2022/07/07 04:41:18;;;;;;;2.85;1.60;;;;;;;15.32;85.29;99456.98;1745590;82;21032;-77
2022/07/07 04:43:44;;;;;;;0.70;0.70;;;;;;;15.34;85.11;99461.25;1745818;82;21606;-76
2022/07/07 04:46:11;;;;;;;2.15;0.78;;;;;;;15.35;84.71;99464.30;1745503;81;21617;-76
2022/07/07 04:48:37;;;;;;;1.37;0.75;;;;;;;15.33;84.36;99461.33;1745955;82;20984;-77
2022/07/07 04:51:05;;;;;;;2.62;0.90;;;;;;;15.29;84.47;99470.41;1745688;81;21166;-77
2022/07/07 04:53:31;;;;;;;3.55;0.70;;;;;;;15.25;84.46;99468.40;1745541;81;21115;-76
2022/07/07 04:55:58;;;;;;;0.93;0.80;;;;;;;15.26;84.50;99466.59;1771020;80;21067;-76
2022/07/07 04:58:25;;;;;;;1.10;0.72;;;;;;;15.30;84.69;99469.45;1767308;80;20984;-76
2022/07/07 05:00:52;;;;;;;2.65;1.05;;;;;;;15.35;84.81;99473.58;1768475;80;21031;-77
2022/07/07 05:03:18;;;;;;;2.25;1.00;;;;;;;15.42;84.68;99478.07;1770612;80;21196;-76
2022/07/07 05:05:45;;;;;;;1.05;0.82;;;;;;;15.50;84.46;99486.45;1805509;78;20983;-76
2022/07/07 05:08:11;;;;;;;1.25;0.90;;;;;;;15.56;84.25;99491.88;1805079;79;21035;-77
2022/07/07 05:10:39;;;;;;;0.90;0.78;;;;;;;15.58;84.16;99498.83;1805143;79;20987;-77
2022/07/07 05:13:05;;;;;;;0.70;0.70;;;;;;;15.61;84.01;99498.63;1805439;79;20927;-76
2022/07/07 05:15:33;;;;;;;2.92;1.10;;;;;;;15.67;83.58;99483.31;1805389;79;21114;-77
2022/07/07 05:17:59;;;;;;;2.35;1.40;;;;;;;15.65;83.17;99477.25;1805321;79;20967;-76
2022/07/07 05:20:26;;;;;;;3.20;2.12;;;;;;;15.61;82.93;99477.89;1805165;79;20959;-77
2022/07/07 05:22:52;;;;;;;2.08;1.30;;;;;;;15.58;82.98;99491.31;1805050;79;21089;-76
2022/07/07 05:25:19;;;;;;;2.35;1.50;;;;;;;15.60;83.03;99493.41;1805538;79;20968;-77
2022/07/07 05:27:47;;;;;;;1.70;1.60;;;;;;;15.64;82.60;99492.80;1805231;79;21580;-76
2022/07/07 05:30:13;;;;;;;2.15;1.80;;;;;;;15.65;82.54;99500.67;1805459;79;20964;-76
2022/07/07 05:32:41;;;;;;;1.90;1.80;;;;;;;15.68;82.56;99492.99;1805139;79;21043;-77
2022/07/07 05:35:08;;;;;;;3.80;2.10;;;;;;;15.72;82.87;99495.88;1805267;79;20983;-76
2022/07/07 05:37:36;;;;;;;1.70;1.60;;;;;;;15.77;82.59;99487.22;1805392;78;21007;-77
2022/07/07 05:40:05;;;;;;;1.75;1.65;;;;;;;15.84;82.62;99495.20;1805190;79;21523;-77
2022/07/07 05:42:33;;;;;;;9.50;1.95;;;;;;;15.89;82.57;99494.47;1813527;79;21051;-77
2022/07/07 05:45:00;;;;;;;3.62;1.50;;;;;;;15.95;82.56;99487.50;1813093;79;21039;-76
2022/07/07 05:47:27;;;;;;;2.35;1.80;;;;;;;16.02;82.44;99484.47;1738363;82;21008;-76
2022/07/07 05:49:54;;;;;;;3.05;1.82;;;;;;;16.08;82.10;99488.11;1805451;79;20986;-76
2022/07/07 05:52:21;;;;;;;3.42;1.65;;;;;;;16.14;82.02;99495.73;1805238;79;21463;-75
2022/07/07 05:54:47;;;;;;;3.45;2.22;;;;;;;16.18;81.71;99496.40;1796542;78;21033;-75
2022/07/07 05:57:14;;;;;;;3.00;1.70;;;;;;;16.18;81.24;99503.88;1786889;80;21103;-76
2022/07/07 05:59:41;;;;;;;2.98;1.80;;;;;;;16.18;81.25;99507.86;1786769;80;21074;-76
2022/07/07 06:02:07;;;;;;;5.05;1.75;;;;;;;16.22;81.20;99499.24;1786995;79;21063;-77
2022/07/07 06:04:34;;;;;;;1.40;1.30;;;;;;;16.26;81.14;99501.64;1787063;80;21227;-76
2022/07/07 06:07:00;;;;;;;1.67;1.57;;;;;;;16.29;80.61;99505.45;1792626;78;20996;-77
2022/07/07 06:09:27;;;;;;;2.70;1.30;;;;;;;16.31;80.33;99510.19;1819039;77;21127;-76
2022/07/07 06:11:54;;;;;;;1.40;1.30;;;;;;;16.37;80.41;99510.77;1819228;78;21049;-76
2022/07/07 06:14:22;;;;;;;3.62;1.52;;;;;;;16.43;80.15;99517.06;1819220;77;21087;-77
2022/07/07 06:16:49;;;;;;;1.10;1.10;;;;;;;16.50;80.04;99519.73;1819271;77;21129;-77
2022/07/07 06:19:16;;;;;;;1.00;1.00;;;;;;;16.56;79.37;99522.48;1819336;78;21114;-77
2022/07/07 06:21:42;;;;;;;5.58;1.40;;;;;;;16.55;78.96;99532.27;1819123;77;21110;-77
2022/07/07 06:24:09;;;;;;;3.33;1.00;;;;;;;16.57;79.26;99530.36;1818978;77;21166;-77
2022/07/07 06:26:36;;;;;;;2.27;0.98;;;;;;;16.64;79.41;99529.08;1818970;77;21136;-76
2022/07/07 06:29:03;;;;;;;1.40;1.00;;;;;;;16.66;78.75;99528.95;1818934;78;22214;-76
2022/07/07 06:31:30;;;;;;;2.37;1.02;;;;;;;16.65;78.78;99533.42;1819273;78;21825;-76
2022/07/07 06:33:57;;;;;;;5.87;1.30;;;;;;;16.64;78.34;99534.84;1818918;78;21521;-76
2022/07/07 06:36:24;;;;;;;1.00;0.98;;;;;;;16.65;78.56;99534.75;1819137;77;21134;-76
2022/07/07 06:38:50;;;;;;;1.00;1.00;;;;;;;16.66;78.42;99540.45;1818985;78;21031;-76
2022/07/07 06:41:17;;;;;;;1.15;0.90;;;;;;;16.68;78.81;99537.23;1819176;78;21170;-77
2022/07/07 06:43:44;;;;;;;1.35;1.25;;;;;;;16.75;78.64;99541.70;1818837;78;21083;-77
2022/07/07 06:46:11;;;;;;;1.42;1.10;;;;;;;16.85;78.60;99544.22;1819327;77;21043;-76
2022/07/07 06:48:38;;;;;;;3.45;0.98;;;;;;;16.90;77.85;99545.28;1819021;78;21044;-76
2022/07/07 06:51:05;;;;;;;1.10;1.10;;;;;;;16.91;77.85;99549.63;1819404;78;21001;-76
2022/07/07 06:53:31;;;;;;;1.25;1.12;;;;;;;16.97;78.34;99541.78;1818990;77;21816;-76
2022/07/07 06:55:58;;;;;;;0.93;0.90;;;;;;;17.08;78.67;99542.83;1818613;78;20972;-76
2022/07/07 06:58:24;;;;;;;1.00;1.00;;;;;;;17.23;78.53;99545.48;1819169;78;20986;-77
2022/07/07 07:00:51;;;;;;;1.27;0.90;;;;;;;17.35;77.69;99540.75;1819013;78;20973;-76
2022/07/07 07:03:17;;;;;;;2.35;0.85;;;;;;;17.45;77.42;99536.56;1819177;78;21022;-76
2022/07/07 07:05:44;;;;;;;4.08;0.75;;;;;;;17.56;76.17;99535.03;1818828;78;21815;-76
2022/07/07 07:08:10;;;;;;;1.32;1.10;;;;;;;17.60;75.94;99532.54;1819676;78;21472;-76
2022/07/07 07:10:37;;;;;;;5.92;1.30;;;;;;;17.66;75.73;99528.17;1819394;78;21036;-76
2022/07/07 07:13:04;;;;;;;2.30;0.78;;;;;;;17.72;75.75;99531.78;1818707;78;21060;-76
2022/07/07 07:15:30;;;;;;;0.88;0.80;;;;;;;17.82;75.57;99528.05;1819389;78;20973;-76
2022/07/07 07:17:57;;;;;;;0.80;0.80;;;;;;;17.96;75.47;99525.37;1819007;77;21795;-77
2022/07/07 07:20:23;;;;;;;0.80;0.80;;;;;;;18.10;75.15;99524.45;1819045;78;21472;-76
2022/07/07 07:22:50;;;;;;;3.27;1.10;;;;;;;18.21;74.84;99531.76;1819164;78;21030;-77
2022/07/07 07:25:17;;;;;;;0.88;0.88;;;;;;;18.31;74.41;99526.69;1819302;77;20981;-75
2022/07/07 07:27:44;;;;;;;1.12;0.95;;;;;;;18.35;74.21;99530.34;1818966;78;20997;-76
2022/07/07 07:30:14;;;;;;;1.00;0.82;;;;;;;18.43;74.05;99531.67;1818956;78;21063;-77
2022/07/07 07:32:41;;;;;;;3.45;0.68;;;;;;;18.54;73.50;99537.98;1819165;78;21002;-76
2022/07/07 07:35:08;;;;;;;1.80;0.88;;;;;;;18.62;72.98;99533.94;1819062;78;20993;-76
2022/07/07 07:37:35;;;;;;;3.00;0.90;;;;;;;18.69;72.93;99540.55;1819072;78;21040;-76
2022/07/07 07:40:03;;;;;;;1.02;0.93;;;;;;;18.74;72.62;99534.42;1819091;78;20988;-76
2022/07/07 07:42:30;;;;;;;2.45;0.85;;;;;;;18.79;72.72;99537.63;1819083;78;21102;-76
2022/07/07 07:45:12;;;;;;;1.10;1.00;;;;;;;18.84;72.23;99531.53;1811162;78;21036;-75
2022/07/07 07:47:45;;;;;;;2.15;0.95;;;;;;;18.92;72.39;99535.02;1805073;79;21028;-77
2022/07/07 07:50:17;;;;;;;2.83;0.90;;;;;;;19.12;72.65;99536.30;1805163;78;21150;-76
2022/07/07 07:52:44;;;;;;;1.00;0.90;;;;;;;19.34;73.21;99533.47;1805272;78;21044;-77
2022/07/07 07:55:14;;;;;;;2.77;0.90;;;;;;;19.55;72.73;99526.61;1805296;77;21987;-76
2022/07/07 07:57:42;;;;;;;8.03;0.98;;;;;;;19.78;72.05;99532.12;1805253;79;21561;-76
2022/07/07 08:00:11;;;;;;;0.93;0.80;;;;;;;19.94;71.46;99532.71;1805460;79;21044;-77
2022/07/07 08:02:40;;;;;;;0.80;0.80;;;;;;;20.08;70.08;99534.84;1805294;79;21098;-76
2022/07/07 08:05:07;;;;;;;2.37;0.78;;;;;;;20.13;69.76;99540.70;1805141;79;21007;-76
2022/07/07 08:07:35;;;;;;;1.95;0.80;;;;;;;20.16;68.54;99538.66;1805545;79;21099;-76
2022/07/07 08:10:02;;;;;;;1.10;0.70;;;;;;;20.14;67.21;99533.03;1804981;79;21620;-76
2022/07/07 08:12:30;;;;;;;1.07;0.98;;;;;;;20.07;66.69;99527.79;1805465;78;21031;-77
2022/07/07 08:14:57;;;;;;;0.80;0.80;;;;;;;20.01;66.60;99540.63;1805103;79;21038;-76
2022/07/07 08:17:24;;;;;;;1.57;0.80;;;;;;;19.98;66.56;99533.33;1807176;78;21003;-75
2022/07/07 08:19:51;;;;;;;1.42;0.72;;;;;;;19.98;66.03;99540.84;1808955;79;21127;-76
2022/07/07 08:22:18;;;;;;;1.20;0.90;;;;;;;19.97;66.96;99542.30;1808508;79;21027;-77
2022/07/07 08:24:44;;;;;;;0.90;0.90;;;;;;;20.06;67.75;99531.45;1808499;79;21091;-77
2022/07/07 08:27:11;;;;;;;0.80;0.80;;;;;;;20.16;67.42;99541.81;1808568;79;21082;-76
2022/07/07 08:29:39;;;;;;;1.02;0.93;;;;;;;20.17;66.65;99548.38;1808631;79;21003;-76
2022/07/07 08:32:14;;;;;;;3.22;0.90;;;;;;;20.18;66.83;99546.06;1808512;79;22469;-76
2022/07/07 08:34:41;;;;;;;2.80;0.70;;;;;;;20.22;66.39;99546.22;1808735;79;21023;-76
2022/07/07 08:37:07;;;;;;;3.02;0.82;;;;;;;20.27;67.16;99549.86;1808812;79;20987;-76
2022/07/07 08:39:33;;;;;;;0.88;0.70;;;;;;;20.33;66.68;99556.59;1808602;79;21020;-76
2022/07/07 08:42:00;;;;;;;1.05;0.80;;;;;;;20.43;66.89;99559.43;1808618;79;21004;-77
2022/07/07 08:44:27;;;;;;;1.57;0.80;;;;;;;20.57;67.18;99556.06;1808509;79;22211;-76
2022/07/07 08:46:53;;;;;;;2.55;0.72;;;;;;;20.76;67.43;99555.56;1808449;79;21055;-76
2022/07/07 08:49:20;;;;;;;0.98;0.80;;;;;;;20.98;67.32;99552.59;1808668;79;21050;-77
2022/07/07 08:51:46;;;;;;;0.70;0.70;;;;;;;21.22;66.96;99554.31;1808506;79;21024;-77
2022/07/07 08:54:16;;;;;;;0.60;0.60;;;;;;;21.40;64.93;99556.01;1808705;79;21125;-76
2022/07/07 08:56:43;;;;;;;1.35;0.60;;;;;;;21.56;65.09;99555.19;1792729;79;21091;-76
2022/07/07 08:59:13;;;;;;;2.02;0.70;;;;;;;21.69;64.98;99557.75;1790178;80;21076;-76
2022/07/07 09:01:40;;;;;;;3.20;0.90;;;;;;;21.79;63.50;99565.41;1790599;79;21670;-75
2022/07/07 09:04:06;;;;;;;2.70;0.80;;;;;;;21.82;61.83;99565.16;1790160;80;22182;-76
2022/07/07 09:06:33;;;;;;;0.75;0.75;;;;;;;21.67;61.84;99566.37;1790551;80;21063;-76
2022/07/07 09:09:01;;;;;;;2.45;0.80;;;;;;;21.59;62.55;99569.68;1790103;79;21125;-76
2022/07/07 09:11:30;;;;;;;1.20;0.80;;;;;;;21.59;61.68;99571.52;1790067;80;21050;-76
2022/07/07 09:14:14;;;;;;;0.93;0.70;;;;;;;21.49;61.75;99570.89;1790530;79;21111;-76
2022/07/07 09:16:42;;;;;;;2.40;0.85;;;;;;;21.47;61.48;99576.86;1790304;79;21550;-77
2022/07/07 09:19:22;;;;;;;2.52;0.70;;;;;;;21.39;61.36;99582.43;1790499;80;21564;-76
2022/07/07 09:21:49;;;;;;;1.37;0.70;;;;;;;21.33;61.51;99585.08;1790124;80;21264;-76
2022/07/07 09:24:16;;;;;;;2.05;0.90;;;;;;;21.37;62.00;99579.88;1790377;80;21004;-77
2022/07/07 09:26:44;;;;;;;0.85;0.70;;;;;;;21.47;61.89;99581.37;1790383;80;21599;-77
2022/07/07 09:29:19;;;;;;;1.07;0.70;;;;;;;21.61;62.74;99588.30;1790485;80;21087;-75
2022/07/07 09:32:00;;;;;;;3.33;0.60;;;;;;;21.77;62.19;99580.75;1790348;80;21041;-76
2022/07/07 09:34:33;;;;;;;2.58;0.78;;;;;;;21.94;61.41;99578.52;1790365;79;21183;-76
2022/07/07 09:39:51;;;;;;;0.78;0.78;;;;;;;22.28;60.97;99575.78;1790010;80;21626;-76
2022/07/07 09:42:26;;;;;;;0.78;0.62;;;;;;;22.45;61.20;99576.59;1804307;78;21010;-76
2022/07/07 09:44:57;;;;;;;2.35;0.60;;;;;;;22.61;60.82;99577.02;1802406;79;21026;-76
2022/07/07 09:47:24;;;;;;;0.70;0.70;;;;;;;22.80;60.74;99584.86;1802618;79;21104;-75
2022/07/07 09:50:09;;;;;;;1.37;0.65;;;;;;;22.92;60.21;99581.13;1802638;79;20971;-75
2022/07/07 09:52:39;;;;;;;2.15;0.70;;;;;;;23.02;60.02;99584.38;1802557;79;21030;-76
2022/07/07 09:55:09;;;;;;;2.27;0.70;;;;;;;23.12;58.33;99589.34;1803598;78;21192;-76
2022/07/07 09:57:37;;;;;;;1.85;0.60;;;;;;;23.13;58.56;99582.98;1825063;78;21076;-76
2022/07/07 10:00:06;;;;;;;1.70;0.70;;;;;;;23.16;57.56;99571.98;1825203;78;21120;-77
2022/07/07 10:02:36;;;;;;;3.20;0.78;;;;;;;23.15;57.28;99571.14;1825294;78;21061;-76
2022/07/07 10:05:04;;;;;;;0.60;0.60;;;;;;;23.16;56.97;99576.01;1824979;78;21005;-77
2022/07/07 10:07:33;;;;;;;0.50;0.50;;;;;;;23.17;57.18;99580.41;1825387;78;21053;-77
2022/07/07 10:10:08;;;;;;;0.68;0.60;;;;;;;23.25;58.05;99573.89;1825151;78;21029;-77
2022/07/07 10:12:45;;;;;;;3.02;0.72;;;;;;;23.35;57.70;99582.84;1825375;78;21108;-77
2022/07/07 10:15:12;;;;;;;0.57;0.57;;;;;;;23.48;57.59;99581.76;1825323;78;21049;-77
2022/07/07 10:17:42;;;;;;;0.85;0.50;;;;;;;23.60;57.34;99581.17;1825326;78;21120;-76
2022/07/07 10:20:09;;;;;;;3.02;0.65;;;;;;;23.70;57.23;99576.21;1825363;78;21103;-76
2022/07/07 10:22:36;;;;;;;1.25;0.75;;;;;;;23.82;55.80;99578.80;1827091;77;21039;-76
2022/07/07 10:25:08;;;;;;;0.80;0.62;;;;;;;23.86;55.50;99585.62;1825097;77;21078;-76
2022/07/07 10:27:36;;;;;;;0.80;0.55;;;;;;;23.94;55.52;99585.80;1825386;77;21574;-76
2022/07/07 10:30:04;;;;;;;0.60;0.60;;;;;;;24.02;53.68;99577.02;1798026;78;21589;-77
2022/07/07 10:32:42;;;;;;;2.67;0.70;;;;;;;23.98;52.58;99580.48;1824626;78;21691;-77
2022/07/07 10:35:12;;;;;;;2.20;0.70;;;;;;;23.98;53.47;99584.52;1802952;78;20980;-77
2022/07/07 10:37:45;;;;;;;1.05;0.50;;;;;;;24.05;54.48;99581.63;1825257;78;21141;-76
2022/07/07 10:40:23;;;;;;;0.85;0.72;;;;;;;24.14;54.95;99579.09;1825474;77;20991;-77
2022/07/07 10:43:24;;;;;;;1.30;0.60;;;;;;;24.26;54.11;99570.78;1825202;78;21052;-76
2022/07/07 10:45:53;;;;;;;1.10;0.60;;;;;;;24.37;54.10;99577.02;1825353;78;21113;-77
2022/07/07 10:48:46;;;;;;;0.55;0.55;;;;;;;24.42;54.14;99563.48;1825395;78;21549;-77
2022/07/07 10:51:21;;;;;;;2.17;0.82;;;;;;;24.52;53.19;99570.22;1825551;78;21698;-76
2022/07/07 10:54:02;;;;;;;3.33;0.55;;;;;;;24.60;52.12;99560.14;1825378;78;21035;-76
2022/07/07 10:56:59;;;;;;;0.95;0.55;;;;;;;24.64;52.75;99565.07;1815070;78;21519;-77
2022/07/07 10:59:26;;;;;;;1.25;0.57;;;;;;;24.75;52.74;99572.16;1805074;79;22175;-77
2022/07/07 11:02:09;;;;;;;3.35;0.60;;;;;;;24.85;52.26;99579.73;1779355;79;22194;-76
2022/07/07 11:04:47;;;;;;;4.53;0.60;;;;;;;24.94;51.69;99579.36;1805134;79;21528;-76
2022/07/07 11:07:18;;;;;;;0.78;0.60;;;;;;;25.01;50.56;99585.02;1805154;78;21059;-77
2022/07/07 11:10:03;;;;;;;0.55;0.55;;;;;;;25.05;51.16;99581.05;1805093;79;21043;-77
2022/07/07 11:12:36;;;;;;;1.20;0.47;;;;;;;25.10;49.97;99575.22;1806073;78;20997;-76
2022/07/07 11:15:30;;;;;;;0.80;0.50;;;;;;;25.12;50.57;99587.55;1805426;78;20984;-77
2022/07/07 11:18:05;;;;;;;2.20;0.60;;;;;;;25.16;49.81;99585.41;1805717;79;21526;-77
2022/07/07 11:20:33;;;;;;;1.30;0.70;;;;;;;25.16;49.93;99586.25;1805056;78;21467;-77
2022/07/07 11:23:08;;;;;;;2.83;0.60;;;;;;;25.27;50.19;99591.14;1805032;79;21416;-76
2022/07/07 11:25:34;;;;;;;1.02;0.60;;;;;;;25.34;49.17;99593.12;1805109;78;21119;-77
2022/07/07 11:28:04;;;;;;;0.50;0.50;;;;;;;25.35;49.23;99588.58;1804914;78;21043;-77
2022/07/07 11:30:31;;;;;;;0.68;0.50;;;;;;;25.39;48.44;99590.84;1778631;79;21952;-76
2022/07/07 11:32:59;;;;;;;1.50;0.80;;;;;;;25.40;48.54;99587.64;1805832;79;21115;-77
2022/07/07 11:35:30;;;;;;;0.40;0.40;;;;;;;25.45;49.21;99585.34;1805290;79;21098;-76
2022/07/07 11:37:58;;;;;;;0.60;0.50;;;;;;;25.49;48.85;99583.23;1805140;79;21068;-77
2022/07/07 11:40:25;;;;;;;1.85;0.60;;;;;;;25.57;49.03;99584.19;1805210;78;21036;-76
2022/07/07 11:42:53;;;;;;;0.88;0.68;;;;;;;25.63;48.29;99593.52;1805216;79;21567;-76